MSC Sinfonia — H8XH — position and weather

sailwx.info

Track history (hours):
 
Tides and Currents Weather Stations Pressure Air Temp Water Temp Dewpoint Dewpoint Depression Visibility Wind Speed Wind Dir Waves Ship Positions

MSC Sinfonia

Last reported at 2015-Aug-29 06:33 UTC. Time now 2015-Aug-29 07:23 UTC.
Position N 55°43' E 012°38'.

Length 251 m; draft 6.8 m.

Type: Passenger vessel. MMSI: 356715971.

Date/timePositionNaut miles runAvg speedWind from/ knotsBaromVisibWave heightAir tempDewpointWater temp
2015-Aug-29 06:33N 55°43' E 012°38'8 7.5
2015-Aug-29 05:33N 55°50' E 012°44'1111.1
2015-Aug-29 04:34N 56°01' E 012°40'1313.1
2015-Aug-29 03:34N 56°10' E 012°24'1413.6
2015-Aug-29 02:33N 56°18' E 012°04'1612.8
2015-Aug-29 01:17N 56°34' E 011°56'1013.5
2015-Aug-29 00:33N 56°43' E 011°52'1313.4
2015-Aug-28 23:33N 56°56' E 011°45'1413.6
2015-Aug-28 22:33N 57°09' E 011°36'1414.5
2015-Aug-28 21:33N 57°22' E 011°27'1413.8
2015-Aug-28 20:33N 57°34' E 011°13'1616.0
2015-Aug-28 19:33N 57°45' E 010°50'  
2015-Aug-24 18:23N 58°18' E 005°29'1518.5
2015-Aug-24 17:33N 58°08' E 005°51'10717.8
2015-Aug-24 11:31N 57°47' E 009°09'2418.4
2015-Aug-24 10:14N 57°48' E 009°53'1618.6
2015-Aug-24 09:22N 57°49' E 010°24'1417.9
2015-Aug-24 08:33N 57°47' E 010°51'1919.0
2015-Aug-24 07:33N 57°33' E 011°16'1818.5
2015-Aug-24 06:33N 57°17' E 011°33'1918.9
2015-Aug-24 05:33N 56°60' E 011°46'1817.6
2015-Aug-24 04:33N 56°43' E 011°52'1817.6
2015-Aug-24 03:33N 56°28' E 011°36'8415.7
2015-Aug-23 22:14N 55°06' E 011°03'1116.2
2015-Aug-23 21:33N 54°56' E 010°56'1714.4
2015-Aug-23 20:22N 54°39' E 011°03'1518.6
2015-Aug-23 19:33N 54°32' E 011°26'1818.0
2015-Aug-23 18:33N 54°23' E 011°53'1514.6
2015-Aug-23 17:33N 54°11' E 012°06'0 0.1
2015-Aug-23 16:26N 54°11' E 012°06'0 0.0
2015-Aug-23 15:29N 54°11' E 012°06'0 0.0
2015-Aug-23 14:32N 54°11' E 012°06'0 0.0
2015-Aug-23 13:32N 54°11' E 012°06'0 0.0
2015-Aug-23 12:32N 54°11' E 012°06'0 0.0
2015-Aug-23 11:23N 54°11' E 012°06'0 0.0
2015-Aug-23 10:23N 54°11' E 012°06'0 0.0
2015-Aug-23 08:29N 54°11' E 012°06'0 0.0
2015-Aug-23 07:26N 54°11' E 012°06'0 0.0
2015-Aug-23 06:32N 54°11' E 012°06'0 0.0
2015-Aug-23 05:33N 54°11' E 012°06'4 3.5
2015-Aug-23 04:33N 54°14' E 012°03'1111.4
2015-Aug-23 03:33N 54°24' E 011°56'8 8.0
2015-Aug-23 02:33N 54°27' E 012°09'1010.0
2015-Aug-23 01:33N 54°36' E 012°14'1010.0
2015-Aug-23 00:33N 54°44' E 012°25'1010.1
2015-Aug-22 23:33N 54°52' E 012°35'9 9.4
2015-Aug-22 22:33N 55°01' E 012°39'10 9.9
2015-Aug-22 21:33N 55°11' E 012°38'1010.2
2015-Aug-22 20:34N 55°21' E 012°39'1010.2
2015-Aug-22 19:34N 55°31' E 012°42'1111.3
2015-Aug-22 18:33N 55°43' E 012°41'2 2.0
2015-Aug-22 17:33N 55°43' E 012°37'0 0.0
2015-Aug-22 16:33N 55°43' E 012°37'0 0.0
2015-Aug-22 15:33N 55°43' E 012°37'0 0.0
2015-Aug-22 14:33N 55°43' E 012°37'0 0.0
2015-Aug-22 13:33N 55°43' E 012°37'0 0.0
2015-Aug-22 12:33N 55°43' E 012°37'0 0.0
2015-Aug-22 11:33N 55°43' E 012°37'0 0.0
2015-Aug-22 10:33N 55°43' E 012°37'0 0.0
2015-Aug-22 09:33N 55°43' E 012°37'2 2.1
2015-Aug-22 08:34N 55°43' E 012°41'10 9.9
2015-Aug-22 07:34N 55°34' E 012°42'1313.1
2015-Aug-22 06:33N 55°21' E 012°40'1313.4
2015-Aug-22 05:34N 55°15' E 013°01'1515.4
2015-Aug-22 04:33N 55°14' E 013°28'1716.4
2015-Aug-22 03:32N 55°13' E 013°57'1616.4
2015-Aug-22 02:33N 55°19' E 014°24'1818.1
2015-Aug-22 01:33N 55°30' E 014°49'1817.9
2015-Aug-22 00:33N 55°39' E 015°17'1818.1
2015-Aug-21 23:34N 55°48' E 015°44'1818.2
2015-Aug-21 22:34N 55°57' E 016°13'1818.0
2015-Aug-21 21:33N 56°06' E 016°41'1818.0
2015-Aug-21 20:33N 56°17' E 017°06'1818.0
2015-Aug-21 19:34N 56°28' E 017°32'1818.1
2015-Aug-21 18:33N 56°39' E 017°58'1817.9
2015-Aug-21 17:33N 56°50' E 018°24'1818.0
2015-Aug-21 16:33N 57°04' E 018°44'1818.0
2015-Aug-21 15:33N 57°19' E 019°04'1818.3
2015-Aug-21 14:33N 57°33' E 019°25'17617.6
2015-Aug-21 04:34N 59°38' E 023°23'1818.0
2015-Aug-21 03:33N 59°43' E 023°57'2517.8
2015-Aug-21 02:10N 59°50' E 024°44'1317.8
2015-Aug-21 01:26N 59°52' E 025°10'1517.5
2015-Aug-21 00:33N 59°54' E 025°40'1817.7
2015-Aug-20 23:33N 59°59' E 026°14'1717.2
2015-Aug-20 22:33N 60°01' E 026°49'1716.9
2015-Aug-20 21:34N 60°05' E 027°21'3315.8
2015-Aug-20 19:30N 60°04' E 028°27'3316.3
2015-Aug-20 17:28N 60°01' E 029°33'1111.8
2015-Aug-20 16:33N 59°57' E 029°53'9 9.3
2015-Aug-20 15:33N 59°57' E 030°11'0 0.1
2015-Aug-20 14:33N 59°57' E 030°11'0 0.0
2015-Aug-20 13:30N 59°57' E 030°11'0 0.0
2015-Aug-20 12:33N 59°57' E 030°11'0 0.0
2015-Aug-20 11:33N 59°57' E 030°11'0 0.0
2015-Aug-20 10:33N 59°57' E 030°11'0 0.0
2015-Aug-20 09:33N 59°57' E 030°11'0 0.0
2015-Aug-20 08:30N 59°57' E 030°11'0 0.0
2015-Aug-20 07:33N 59°57' E 030°11'0 0.0
2015-Aug-20 06:33N 59°57' E 030°11'0 0.0
2015-Aug-20 05:33N 59°57' E 030°11'0 0.0
2015-Aug-20 04:33N 59°57' E 030°11'0 0.0
2015-Aug-20 03:33N 59°57' E 030°11'7 7.0
2015-Aug-20 02:33N 59°56' E 029°57'9612.0
2015-Aug-19 18:33N 59°59' E 026°46'1414.1
2015-Aug-19 17:33N 59°56' E 026°18'  
Track history (hours):
 
Tides and Currents Weather Stations Pressure Air Temp Water Temp Dewpoint Dewpoint Depression Visibility Wind Speed Wind Dir Waves Ship Positions

MSC Sinfonia

Last reported at 2015-Aug-29 06:33 UTC. Time now 2015-Aug-29 07:23 UTC.
Position N 55°43' E 012°38'.

Length 251 m; draft 6.8 m.

Type: Passenger vessel. MMSI: 356715971.

Date/timePositionNaut miles runAvg speedWind from/ knotsBaromVisibWave heightAir tempDewpointWater temp
2015-Aug-29 06:33N 55°43' E 012°38'8 7.5
2015-Aug-29 05:33N 55°50' E 012°44'1111.1
2015-Aug-29 04:34N 56°01' E 012°40'1313.1
2015-Aug-29 03:34N 56°10' E 012°24'1413.6
2015-Aug-29 02:33N 56°18' E 012°04'1612.8
2015-Aug-29 01:17N 56°34' E 011°56'1013.5
2015-Aug-29 00:33N 56°43' E 011°52'1313.4
2015-Aug-28 23:33N 56°56' E 011°45'1413.6
2015-Aug-28 22:33N 57°09' E 011°36'1414.5
2015-Aug-28 21:33N 57°22' E 011°27'1413.8
2015-Aug-28 20:33N 57°34' E 011°13'1616.0
2015-Aug-28 19:33N 57°45' E 010°50'  
2015-Aug-24 18:23N 58°18' E 005°29'1518.5
2015-Aug-24 17:33N 58°08' E 005°51'10717.8
2015-Aug-24 11:31N 57°47' E 009°09'2418.4
2015-Aug-24 10:14N 57°48' E 009°53'1618.6
2015-Aug-24 09:22N 57°49' E 010°24'1417.9
2015-Aug-24 08:33N 57°47' E 010°51'1919.0
2015-Aug-24 07:33N 57°33' E 011°16'1818.5
2015-Aug-24 06:33N 57°17' E 011°33'1918.9
2015-Aug-24 05:33N 56°60' E 011°46'1817.6
2015-Aug-24 04:33N 56°43' E 011°52'1817.6
2015-Aug-24 03:33N 56°28' E 011°36'8415.7
2015-Aug-23 22:14N 55°06' E 011°03'1116.2
2015-Aug-23 21:33N 54°56' E 010°56'1714.4
2015-Aug-23 20:22N 54°39' E 011°03'1518.6
2015-Aug-23 19:33N 54°32' E 011°26'1818.0
2015-Aug-23 18:33N 54°23' E 011°53'1514.6
2015-Aug-23 17:33N 54°11' E 012°06'0 0.1
2015-Aug-23 16:26N 54°11' E 012°06'0 0.0
2015-Aug-23 15:29N 54°11' E 012°06'0 0.0
2015-Aug-23 14:32N 54°11' E 012°06'0 0.0
2015-Aug-23 13:32N 54°11' E 012°06'0 0.0
2015-Aug-23 12:32N 54°11' E 012°06'0 0.0
2015-Aug-23 11:23N 54°11' E 012°06'0 0.0
2015-Aug-23 10:23N 54°11' E 012°06'0 0.0
2015-Aug-23 08:29N 54°11' E 012°06'0 0.0
2015-Aug-23 07:26N 54°11' E 012°06'0 0.0
2015-Aug-23 06:32N 54°11' E 012°06'0 0.0
2015-Aug-23 05:33N 54°11' E 012°06'4 3.5
2015-Aug-23 04:33N 54°14' E 012°03'1111.4
2015-Aug-23 03:33N 54°24' E 011°56'8 8.0
2015-Aug-23 02:33N 54°27' E 012°09'1010.0
2015-Aug-23 01:33N 54°36' E 012°14'1010.0
2015-Aug-23 00:33N 54°44' E 012°25'1010.1
2015-Aug-22 23:33N 54°52' E 012°35'9 9.4
2015-Aug-22 22:33N 55°01' E 012°39'10 9.9
2015-Aug-22 21:33N 55°11' E 012°38'1010.2
2015-Aug-22 20:34N 55°21' E 012°39'1010.2
2015-Aug-22 19:34N 55°31' E 012°42'1111.3
2015-Aug-22 18:33N 55°43' E 012°41'2 2.0
2015-Aug-22 17:33N 55°43' E 012°37'0 0.0
2015-Aug-22 16:33N 55°43' E 012°37'0 0.0
2015-Aug-22 15:33N 55°43' E 012°37'0 0.0
2015-Aug-22 14:33N 55°43' E 012°37'0 0.0
2015-Aug-22 13:33N 55°43' E 012°37'0 0.0
2015-Aug-22 12:33N 55°43' E 012°37'0 0.0
2015-Aug-22 11:33N 55°43' E 012°37'0 0.0
2015-Aug-22 10:33N 55°43' E 012°37'0 0.0
2015-Aug-22 09:33N 55°43' E 012°37'2 2.1
2015-Aug-22 08:34N 55°43' E 012°41'10 9.9
2015-Aug-22 07:34N 55°34' E 012°42'1313.1
2015-Aug-22 06:33N 55°21' E 012°40'1313.4
2015-Aug-22 05:34N 55°15' E 013°01'1515.4
2015-Aug-22 04:33N 55°14' E 013°28'1716.4
2015-Aug-22 03:32N 55°13' E 013°57'1616.4
2015-Aug-22 02:33N 55°19' E 014°24'1818.1
2015-Aug-22 01:33N 55°30' E 014°49'1817.9
2015-Aug-22 00:33N 55°39' E 015°17'1818.1
2015-Aug-21 23:34N 55°48' E 015°44'1818.2
2015-Aug-21 22:34N 55°57' E 016°13'1818.0
2015-Aug-21 21:33N 56°06' E 016°41'1818.0
2015-Aug-21 20:33N 56°17' E 017°06'1818.0
2015-Aug-21 19:34N 56°28' E 017°32'1818.1
2015-Aug-21 18:33N 56°39' E 017°58'1817.9
2015-Aug-21 17:33N 56°50' E 018°24'1818.0
2015-Aug-21 16:33N 57°04' E 018°44'1818.0
2015-Aug-21 15:33N 57°19' E 019°04'1818.3
2015-Aug-21 14:33N 57°33' E 019°25'17617.6
2015-Aug-21 04:34N 59°38' E 023°23'1818.0
2015-Aug-21 03:33N 59°43' E 023°57'2517.8
2015-Aug-21 02:10N 59°50' E 024°44'1317.8
2015-Aug-21 01:26N 59°52' E 025°10'1517.5
2015-Aug-21 00:33N 59°54' E 025°40'1817.7
2015-Aug-20 23:33N 59°59' E 026°14'1717.2
2015-Aug-20 22:33N 60°01' E 026°49'1716.9
2015-Aug-20 21:34N 60°05' E 027°21'3315.8
2015-Aug-20 19:30N 60°04' E 028°27'3316.3
2015-Aug-20 17:28N 60°01' E 029°33'1111.8
2015-Aug-20 16:33N 59°57' E 029°53'9 9.3
2015-Aug-20 15:33N 59°57' E 030°11'0 0.1
2015-Aug-20 14:33N 59°57' E 030°11'0 0.0
2015-Aug-20 13:30N 59°57' E 030°11'0 0.0
2015-Aug-20 12:33N 59°57' E 030°11'0 0.0
2015-Aug-20 11:33N 59°57' E 030°11'0 0.0
2015-Aug-20 10:33N 59°57' E 030°11'0 0.0
2015-Aug-20 09:33N 59°57' E 030°11'0 0.0
2015-Aug-20 08:30N 59°57' E 030°11'0 0.0
2015-Aug-20 07:33N 59°57' E 030°11'0 0.0
2015-Aug-20 06:33N 59°57' E 030°11'0 0.0
2015-Aug-20 05:33N 59°57' E 030°11'0 0.0
2015-Aug-20 04:33N 59°57' E 030°11'0 0.0
2015-Aug-20 03:33N 59°57' E 030°11'7 7.0
2015-Aug-20 02:33N 59°56' E 029°57'9612.0
2015-Aug-19 18:33N 59°59' E 026°46'1414.1
2015-Aug-19 17:33N 59°56' E 026°18'  

Dump ship's entire track history